Terminal Aerodrome Forecast
Issued by NWS

Home | Current Version | Previous Version | Text Only | Print | Product List | Glossary On
Versions: 1 2 3 4 5 6 7 8 9 10 11 12 13 14 15 16 17 18 19 20 21
000
FTUS46 KSGX 252320
TAFCRQ
TAF
KCRQ 252320Z 2600/2624 25008KT P6SM FEW016
     FM260100 VRB05KT P6SM SCT015
     FM260300 VRB03KT P6SM OVC015
     FM261700 VRB04KT P6SM SCT017
     FM261900 25009KT P6SM FEW017=

USA.gov is the U.S. government's official web portal to all federal, state and local government web resources and services.